createdAt,value
2023-11-23T00:01:18.829Z,101206.34
2023-11-23T00:04:22.453Z,101217.06
2023-11-23T00:07:25.190Z,101214.62
2023-11-23T00:10:29.728Z,101223.69
2023-11-23T00:13:32.334Z,101234.00
2023-11-23T00:16:35.490Z,101231.25
2023-11-23T00:19:38.080Z,101210.66
2023-11-23T00:22:41.193Z,101208.75
2023-11-23T00:25:45.685Z,101200.78
2023-11-23T00:28:48.951Z,101198.38
2023-11-23T00:31:51.548Z,101200.72
2023-11-23T00:34:54.763Z,101210.78
2023-11-23T00:37:57.418Z,101205.03
2023-11-23T00:41:02.571Z,101198.75
2023-11-23T00:44:05.867Z,101198.91
2023-11-23T00:47:12.937Z,101193.94
2023-11-23T00:50:15.724Z,101199.41
2023-11-23T00:53:18.958Z,101187.38
2023-11-23T00:56:21.838Z,101194.59
2023-11-23T00:59:25.082Z,101188.16
2023-11-23T01:02:28.557Z,101196.50
2023-11-23T01:05:32.752Z,101193.31
2023-11-23T01:08:35.356Z,101210.16
2023-11-23T01:11:39.220Z,101207.84
2023-11-23T01:14:41.970Z,101206.22
2023-11-23T01:17:45.259Z,101192.72
2023-11-23T01:20:47.916Z,101185.87
2023-11-23T01:23:51.001Z,101188.72
2023-11-23T01:26:53.678Z,101193.81
2023-11-23T01:29:57.440Z,101200.84
2023-11-23T01:33:00.124Z,101210.41
2023-11-23T01:36:03.724Z,101218.34
2023-11-23T01:39:06.380Z,101204.69
2023-11-23T01:42:09.571Z,101202.87
2023-11-23T01:45:13.231Z,101193.94
2023-11-23T01:48:17.236Z,101197.34
2023-11-23T01:51:19.972Z,101174.06
2023-11-23T01:54:24.385Z,101184.38
2023-11-23T01:57:33.385Z,101185.44
2023-11-23T02:00:38.345Z,101186.25
2023-11-23T02:03:41.400Z,101183.66
2023-11-23T02:06:44.407Z,101187.19
2023-11-23T02:09:47.271Z,101177.25
2023-11-23T02:12:51.614Z,101172.22
2023-11-23T02:15:54.604Z,101170.28
2023-11-23T02:18:57.479Z,101167.56
2023-11-23T02:22:00.371Z,101167.25
2023-11-23T02:25:05.284Z,101157.09
2023-11-23T02:28:09.468Z,101159.66
2023-11-23T02:31:12.413Z,101153.31
2023-11-23T02:34:16.096Z,101147.62
2023-11-23T02:37:19.337Z,101139.84
2023-11-23T02:40:22.440Z,101142.88
2023-11-23T02:43:26.852Z,101151.03
2023-11-23T02:46:29.989Z,101149.59
2023-11-23T02:49:33.359Z,101149.09
2023-11-23T02:52:36.338Z,101149.91
2023-11-23T02:55:39.244Z,101156.69
2023-11-23T02:58:43.049Z,101158.78
2023-11-23T03:01:45.993Z,101143.53
2023-11-23T03:04:49.223Z,101128.13
2023-11-23T03:07:53.356Z,101121.47
2023-11-23T03:10:56.278Z,101108.63
2023-11-23T03:13:59.532Z,101114.87
2023-11-23T03:17:04.913Z,101113.03
2023-11-23T03:20:10.192Z,101113.72
2023-11-23T03:23:13.432Z,101114.84
2023-11-23T03:26:17.639Z,101114.97
2023-11-23T03:29:20.894Z,101108.28
2023-11-23T03:32:26.545Z,101103.44
2023-11-23T03:35:29.445Z,101109.03
2023-11-23T03:38:32.694Z,101114.41
2023-11-23T03:41:35.650Z,101105.41
2023-11-23T03:44:38.575Z,101103.59
2023-11-23T03:47:41.451Z,101086.28
2023-11-23T03:50:44.613Z,101091.19
2023-11-23T03:53:47.559Z,101086.22
2023-11-23T03:56:50.639Z,101083.00
2023-11-23T03:59:53.460Z,101083.94
2023-11-23T04:02:57.381Z,101084.28
2023-11-23T04:06:00.541Z,101087.87
2023-11-23T04:09:04.562Z,101080.09
2023-11-23T04:12:08.040Z,101095.53
2023-11-23T04:15:11.299Z,101092.13
2023-11-23T04:18:14.209Z,101090.09
2023-11-23T04:21:17.478Z,101092.44
2023-11-23T04:24:20.468Z,101101.50
2023-11-23T04:27:23.368Z,101108.56
2023-11-23T04:30:26.489Z,101103.59
2023-11-23T04:33:29.395Z,101102.16
2023-11-23T04:36:32.247Z,101097.87
2023-11-23T04:39:35.576Z,101104.53
2023-11-23T04:42:38.582Z,101108.19
2023-11-23T04:45:42.323Z,101109.13
2023-11-23T04:48:45.247Z,101109.16
2023-11-23T04:51:48.119Z,101110.91
2023-11-23T04:54:51.056Z,101112.22
2023-11-23T04:57:53.890Z,101114.56
2023-11-23T05:00:56.833Z,101123.41
2023-11-23T05:04:03.003Z,101117.44
2023-11-23T05:07:07.971Z,101119.50
2023-11-23T05:10:11.064Z,101120.12
2023-11-23T05:13:14.638Z,101128.78
2023-11-23T05:16:17.725Z,101115.81
2023-11-23T05:19:31.827Z,101117.59
2023-11-23T05:22:47.063Z,101126.72
2023-11-23T05:25:50.662Z,101122.00
2023-11-23T05:28:53.408Z,101137.72
2023-11-23T05:31:56.165Z,101137.63
2023-11-23T05:34:58.999Z,101139.72
2023-11-23T05:38:02.646Z,101133.91
2023-11-23T05:41:05.675Z,101129.84
2023-11-23T05:44:08.658Z,101125.28
2023-11-23T05:47:11.966Z,101130.00
2023-11-23T05:50:14.871Z,101132.44
2023-11-23T05:53:17.718Z,101130.44
2023-11-23T05:56:20.810Z,101120.97
2023-11-23T05:59:23.957Z,101136.34
2023-11-23T06:02:27.562Z,101132.66
2023-11-23T06:05:32.098Z,101136.69
2023-11-23T06:08:36.105Z,101125.22
2023-11-23T06:11:39.399Z,101129.16
2023-11-23T06:14:42.303Z,101134.81
2023-11-23T06:17:45.602Z,101130.66
2023-11-23T06:20:48.519Z,101124.28
2023-11-23T06:23:52.828Z,101129.69
2023-11-23T06:26:55.541Z,101130.47
2023-11-23T06:29:59.024Z,101127.12
2023-11-23T06:33:01.778Z,101132.66
2023-11-23T06:36:05.237Z,101133.53
2023-11-23T06:39:10.566Z,101133.38
2023-11-23T06:42:13.995Z,101134.25
2023-11-23T06:45:17.834Z,101121.78
2023-11-23T06:48:21.217Z,101106.72
2023-11-23T06:51:24.073Z,101114.94
2023-11-23T06:54:27.288Z,101111.22
2023-11-23T06:57:29.823Z,101105.47
2023-11-23T07:00:33.562Z,101102.13
2023-11-23T07:03:37.671Z,101094.03
2023-11-23T07:06:41.504Z,101093.69
2023-11-23T07:09:44.102Z,101107.16
2023-11-23T07:12:48.313Z,101106.59
2023-11-23T07:15:51.042Z,101102.78
2023-11-23T07:18:54.315Z,101107.53
2023-11-23T07:21:57.597Z,101115.34
2023-11-23T07:25:01.462Z,101112.00
2023-11-23T07:28:05.244Z,101107.28
2023-11-23T07:31:10.534Z,101104.84
2023-11-23T07:34:13.167Z,101098.56
2023-11-23T07:37:16.900Z,101095.97
2023-11-23T07:40:19.477Z,101089.00
2023-11-23T07:43:22.693Z,101099.56
2023-11-23T07:46:26.161Z,101103.28
2023-11-23T07:49:29.326Z,101099.00
2023-11-23T07:52:32.420Z,101107.28
2023-11-23T07:55:36.035Z,101097.84
2023-11-23T07:58:38.643Z,101089.34
2023-11-23T08:01:41.801Z,101094.75
2023-11-23T08:04:45.542Z,101082.84
2023-11-23T08:07:51.329Z,101082.13
2023-11-23T08:10:54.259Z,101082.38
2023-11-23T08:13:57.186Z,101066.88
2023-11-23T08:17:00.261Z,101072.22
2023-11-23T08:20:08.201Z,101068.69
2023-11-23T08:23:13.856Z,101071.16
2023-11-23T08:26:17.605Z,101062.00
2023-11-23T08:29:20.568Z,101047.59
2023-11-23T08:32:23.865Z,101037.22
2023-11-23T08:35:27.078Z,101037.78
2023-11-23T08:38:30.273Z,101037.66
2023-11-23T08:41:33.421Z,101020.00
2023-11-23T08:44:37.191Z,101007.72
2023-11-23T08:47:40.250Z,101021.88
2023-11-23T08:50:43.339Z,101019.50
2023-11-23T08:53:46.196Z,101018.38
2023-11-23T08:56:48.964Z,101013.00
2023-11-23T08:59:52.231Z,101014.81
2023-11-23T09:02:55.660Z,101018.19
2023-11-23T09:05:59.674Z,101027.16
2023-11-23T09:09:03.086Z,101028.62
2023-11-23T09:12:06.603Z,101021.72
2023-11-23T09:15:11.416Z,101017.81
2023-11-23T09:18:15.303Z,101010.28
2023-11-23T09:21:18.449Z,101004.66
2023-11-23T09:24:23.174Z,101002.22
2023-11-23T09:27:26.290Z,100994.75
2023-11-23T09:30:29.362Z,100983.84
2023-11-23T09:33:32.797Z,100993.97
2023-11-23T09:36:35.881Z,100990.56
2023-11-23T09:39:39.841Z,100993.59
2023-11-23T09:42:42.978Z,100991.75
2023-11-23T09:45:46.696Z,100994.44
2023-11-23T09:48:50.408Z,100989.87
2023-11-23T09:51:53.611Z,100996.25
2023-11-23T09:54:58.021Z,100989.94
2023-11-23T09:58:04.645Z,101002.03
2023-11-23T10:01:10.542Z,100988.72
2023-11-23T10:04:13.890Z,100982.53
2023-11-23T10:07:21.512Z,100984.94
2023-11-23T10:10:28.130Z,100980.53
2023-11-23T10:13:30.827Z,100973.69
2023-11-23T10:16:34.339Z,100951.81
2023-11-23T10:19:37.517Z,100952.22
2023-11-23T10:22:48.785Z,100954.81
2023-11-23T10:25:52.466Z,100953.66
2023-11-23T10:28:56.608Z,100956.56
2023-11-23T10:32:02.851Z,100950.38
2023-11-23T10:35:08.210Z,100937.94
2023-11-23T10:38:13.184Z,100934.06
2023-11-23T10:41:17.563Z,100923.31
2023-11-23T10:44:21.241Z,100919.56
2023-11-23T10:47:27.771Z,100917.25
2023-11-23T10:50:31.144Z,100911.84
2023-11-23T10:53:34.597Z,100894.19
2023-11-23T10:56:38.023Z,100890.34
2023-11-23T10:59:45.496Z,100889.28
2023-11-23T11:02:49.181Z,100884.75
2023-11-23T11:05:54.606Z,100890.87
2023-11-23T11:08:57.247Z,100868.53
2023-11-23T11:12:03.505Z,100870.91
2023-11-23T11:15:07.855Z,100870.94
2023-11-23T11:18:11.824Z,100873.31
2023-11-23T11:21:18.369Z,100861.88
2023-11-23T11:24:23.246Z,100842.78
2023-11-23T11:27:30.428Z,100839.16
2023-11-23T11:30:38.849Z,100834.78
2023-11-23T11:33:41.821Z,100822.72
2023-11-23T11:36:45.818Z,100824.50
2023-11-23T11:39:48.899Z,100817.97
2023-11-23T11:42:52.091Z,100801.88
2023-11-23T11:45:54.930Z,100788.66
2023-11-23T11:49:01.841Z,100788.56
2023-11-23T11:52:07.374Z,100785.28
2023-11-23T11:55:10.714Z,100784.47
2023-11-23T11:58:13.340Z,100780.50
2023-11-23T12:01:19.460Z,100774.16
2023-11-23T12:04:22.887Z,100767.22
2023-11-23T12:07:26.552Z,100770.19
2023-11-23T12:10:39.803Z,100768.38
2023-11-23T12:13:42.672Z,100749.37
2023-11-23T12:16:47.160Z,100754.41
2023-11-23T12:19:54.088Z,100748.41
2023-11-23T12:23:00.827Z,100745.22
2023-11-23T12:26:03.852Z,100733.97
2023-11-23T12:29:06.771Z,100720.75
2023-11-23T12:32:09.785Z,100719.66
2023-11-23T12:35:12.693Z,100723.62
2023-11-23T12:38:15.774Z,100721.66
2023-11-23T12:41:20.619Z,100705.09
2023-11-23T12:44:23.481Z,100703.75
2023-11-23T12:47:27.974Z,100693.38
2023-11-23T12:50:32.519Z,100682.41
2023-11-23T12:53:35.565Z,100682.84
2023-11-23T12:56:39.218Z,100682.41
2023-11-23T12:59:42.079Z,100668.81
2023-11-23T13:02:45.120Z,100667.78
2023-11-23T13:05:50.924Z,100669.16
2023-11-23T13:08:53.943Z,100662.56
2023-11-23T13:11:58.145Z,100658.13
2023-11-23T13:15:01.185Z,100655.28
2023-11-23T13:18:05.780Z,100655.06
2023-11-23T13:21:09.188Z,100649.25
2023-11-23T13:24:13.445Z,100636.59
2023-11-23T13:27:17.429Z,100637.16
2023-11-23T13:30:20.636Z,100630.22
2023-11-23T13:33:24.655Z,100631.78
2023-11-23T13:36:30.520Z,100610.34
2023-11-23T13:39:36.937Z,100613.91
2023-11-23T13:42:42.519Z,100605.19
2023-11-23T13:45:50.702Z,100606.91
2023-11-23T13:48:53.887Z,100610.06
2023-11-23T13:51:58.360Z,100579.19
2023-11-23T13:55:01.326Z,100571.00
2023-11-23T13:58:06.633Z,100556.88
2023-11-23T14:01:12.766Z,100576.44
2023-11-23T14:04:16.216Z,100573.13
2023-11-23T14:07:19.452Z,100567.41
2023-11-23T14:10:22.855Z,100555.28
2023-11-23T14:13:26.774Z,100555.06
2023-11-23T14:16:36.066Z,100548.06
2023-11-23T14:19:39.521Z,100544.19
2023-11-23T14:22:45.499Z,100538.34
2023-11-23T14:25:48.326Z,100533.97
2023-11-23T14:28:51.845Z,100525.22
2023-11-23T14:31:55.114Z,100525.81
2023-11-23T14:34:58.708Z,100525.37
2023-11-23T14:38:03.485Z,100517.44
2023-11-23T14:41:09.447Z,100510.31
2023-11-23T14:44:12.328Z,100515.16
2023-11-23T14:47:15.459Z,100529.53
2023-11-23T14:50:18.506Z,100516.13
2023-11-23T14:53:28.196Z,100511.53
2023-11-23T14:56:30.857Z,100509.66
2023-11-23T14:59:36.958Z,100504.28
2023-11-23T15:02:42.418Z,100509.34
2023-11-23T15:05:47.010Z,100507.97
2023-11-23T15:08:54.267Z,100496.53
2023-11-23T15:12:01.076Z,100482.88
2023-11-23T15:15:03.943Z,100475.03
2023-11-23T15:18:08.878Z,100473.19
2023-11-23T15:21:13.234Z,100471.78
2023-11-23T15:24:19.276Z,100462.88
2023-11-23T15:27:23.208Z,100469.97
2023-11-23T15:30:26.500Z,100472.50
2023-11-23T15:33:31.019Z,100461.50
2023-11-23T15:36:40.250Z,100462.12
2023-11-23T15:39:46.112Z,100458.16
2023-11-23T15:42:49.333Z,100451.63
2023-11-23T15:45:53.217Z,100439.63
2023-11-23T15:48:56.442Z,100442.84
2023-11-23T15:51:59.465Z,100444.69
2023-11-23T15:55:05.871Z,100441.31
2023-11-23T15:58:09.983Z,100436.81
2023-11-23T16:01:13.594Z,100428.09
2023-11-23T16:04:16.901Z,100424.53
2023-11-23T16:07:19.939Z,100426.50
2023-11-23T16:10:22.881Z,100429.59
2023-11-23T16:13:26.025Z,100427.37
2023-11-23T16:16:28.948Z,100414.66
2023-11-23T16:19:31.825Z,100422.12
2023-11-23T16:22:34.687Z,100423.97
2023-11-23T16:25:37.559Z,100421.22
2023-11-23T16:28:40.507Z,100415.09
2023-11-23T16:31:46.222Z,100416.78
2023-11-23T16:34:49.679Z,100425.53
2023-11-23T16:37:52.768Z,100425.53
2023-11-23T16:40:57.865Z,100414.47
2023-11-23T16:44:00.861Z,100419.72
2023-11-23T16:47:04.441Z,100406.44
2023-11-23T16:50:10.800Z,100401.16
2023-11-23T16:53:14.453Z,100396.56
2023-11-23T16:56:17.610Z,100390.47
2023-11-23T16:59:21.362Z,100386.28
2023-11-23T17:02:24.770Z,100398.00
2023-11-23T17:05:28.259Z,100392.81
2023-11-23T17:08:30.985Z,100393.78
2023-11-23T17:11:34.114Z,100391.53
2023-11-23T17:14:37.342Z,100379.87
2023-11-23T17:17:46.178Z,100381.81
2023-11-23T17:20:49.191Z,100369.72
2023-11-23T17:23:52.667Z,100360.41
2023-11-23T17:26:55.636Z,100355.53
2023-11-23T17:29:58.685Z,100346.44
2023-11-23T17:36:06.525Z,100339.66
2023-11-23T17:39:16.873Z,100323.69
2023-11-23T17:42:20.919Z,100307.44
2023-11-23T17:45:24.505Z,100293.78
2023-11-23T17:48:28.824Z,100300.66
2023-11-23T17:51:31.804Z,100299.25
2023-11-23T17:54:34.676Z,100290.16
2023-11-23T17:57:37.875Z,100284.09
2023-11-23T18:00:40.994Z,100278.94
2023-11-23T18:03:44.475Z,100266.47
2023-11-23T18:06:46.973Z,100255.41
2023-11-23T18:09:53.115Z,100265.06
2023-11-23T18:12:57.864Z,100255.69
2023-11-23T18:16:00.966Z,100250.59
2023-11-23T18:19:03.915Z,100237.78
2023-11-23T18:22:08.832Z,100245.53
2023-11-23T18:25:11.564Z,100231.53
2023-11-23T18:28:14.730Z,100227.72
2023-11-23T18:31:19.805Z,100227.63
2023-11-23T18:34:23.100Z,100225.22
2023-11-23T18:37:25.930Z,100229.22
2023-11-23T18:40:29.136Z,100232.59
2023-11-23T18:43:31.924Z,100216.91
2023-11-23T18:46:35.056Z,100226.75
2023-11-23T18:49:39.605Z,100214.69
2023-11-23T18:52:43.215Z,100219.22
2023-11-23T18:55:48.316Z,100203.59
2023-11-23T18:58:51.561Z,100217.75
2023-11-23T19:01:55.768Z,100206.34
2023-11-23T19:05:00.539Z,100203.91
2023-11-23T19:08:03.549Z,100196.06
2023-11-23T19:11:07.403Z,100190.13
2023-11-23T19:14:10.179Z,100205.16
2023-11-23T19:17:14.737Z,100185.31
2023-11-23T19:20:18.759Z,100182.19
2023-11-23T19:23:23.340Z,100184.44
2023-11-23T19:26:27.077Z,100176.22
2023-11-23T19:29:38.936Z,100180.66
2023-11-23T19:32:52.712Z,100169.16
2023-11-23T19:35:56.517Z,100165.59
2023-11-23T19:38:59.806Z,100150.75
2023-11-23T19:42:05.111Z,100147.78
2023-11-23T19:45:08.365Z,100144.25
2023-11-23T19:48:12.302Z,100136.75
2023-11-23T19:51:22.955Z,100131.03
2023-11-23T19:54:27.146Z,100120.03
2023-11-23T19:57:29.775Z,100122.31
2023-11-23T20:00:33.305Z,100112.88
2023-11-23T20:03:36.554Z,100112.34
2023-11-23T20:06:39.508Z,100102.91
2023-11-23T20:09:44.283Z,100106.47
2023-11-23T20:12:47.381Z,100094.72
2023-11-23T20:15:50.626Z,100077.66
2023-11-23T20:18:53.632Z,100070.06
2023-11-23T20:21:56.970Z,100059.75
2023-11-23T20:25:00.017Z,100062.19
2023-11-23T20:28:03.108Z,100056.38
2023-11-23T20:31:06.400Z,100049.50
2023-11-23T20:34:09.409Z,100046.16
2023-11-23T20:37:12.366Z,100042.59
2023-11-23T20:40:15.475Z,100037.63
2023-11-23T20:43:20.452Z,100027.53
2023-11-23T20:46:24.614Z,100029.59
2023-11-23T20:49:27.651Z,100025.06
2023-11-23T20:52:30.522Z,100027.13
2023-11-23T20:55:33.774Z,100017.13
2023-11-23T20:58:37.349Z,100012.50
2023-11-23T21:01:40.936Z,100010.03
2023-11-23T21:04:45.263Z,100000.47
2023-11-23T21:07:48.498Z,99998.25
2023-11-23T21:10:51.510Z,99990.78
2023-11-23T21:13:54.413Z,99980.69
2023-11-23T21:16:57.362Z,99979.34
2023-11-23T21:20:00.312Z,99962.66
2023-11-23T21:23:04.035Z,99973.16
2023-11-23T21:26:07.373Z,99971.81
2023-11-23T21:29:13.321Z,99964.50
2023-11-23T21:32:16.856Z,99948.66
2023-11-23T21:35:22.432Z,99946.09
2023-11-23T21:38:25.375Z,99934.88
2023-11-23T21:41:28.290Z,99948.66
2023-11-23T21:44:31.493Z,99925.75
2023-11-23T21:47:35.483Z,99933.59
2023-11-23T21:50:39.668Z,99910.56
2023-11-23T21:53:42.727Z,99916.84
2023-11-23T21:56:46.334Z,99913.31
2023-11-23T21:59:49.054Z,99907.19
2023-11-23T22:02:51.911Z,99907.41
2023-11-23T22:05:54.843Z,99894.41
2023-11-23T22:08:57.857Z,99895.22
2023-11-23T22:12:00.711Z,99886.50
2023-11-23T22:15:03.919Z,99876.31
2023-11-23T22:18:07.157Z,99854.97
2023-11-23T22:21:10.821Z,99844.31
2023-11-23T22:24:17.647Z,99835.25
2023-11-23T22:27:21.614Z,99831.06
2023-11-23T22:30:24.862Z,99816.44
2023-11-23T22:33:29.044Z,99809.84
2023-11-23T22:36:32.284Z,99802.69
2023-11-23T22:39:35.427Z,99788.13
2023-11-23T22:42:39.615Z,99769.94
2023-11-23T22:45:43.173Z,99765.09
2023-11-23T22:48:46.146Z,99769.00
2023-11-23T22:51:49.627Z,99766.13
2023-11-23T22:54:53.108Z,99768.28
2023-11-23T22:57:56.141Z,99763.25
2023-11-23T23:00:59.308Z,99754.22
2023-11-23T23:04:02.311Z,99735.22
2023-11-23T23:07:07.225Z,99733.41
2023-11-23T23:10:10.163Z,99740.69
2023-11-23T23:13:14.274Z,99728.41
2023-11-23T23:16:17.280Z,99725.75
2023-11-23T23:19:20.191Z,99705.38
2023-11-23T23:22:28.785Z,99700.59
2023-11-23T23:25:32.702Z,99700.44
2023-11-23T23:28:35.812Z,99706.66
2023-11-23T23:31:40.033Z,99688.03
2023-11-23T23:34:43.002Z,99680.00
2023-11-23T23:37:47.137Z,99677.09
2023-11-23T23:40:51.778Z,99670.88
2023-11-23T23:43:54.871Z,99665.28
2023-11-23T23:46:57.815Z,99665.41
2023-11-23T23:50:00.710Z,99649.47
2023-11-23T23:53:03.618Z,99639.00
2023-11-23T23:56:08.055Z,99641.06
2023-11-23T23:59:11.562Z,99626.13
